createdAt,value
2023-05-24T00:00:32.434Z,81.0236
2023-05-24T00:01:34.126Z,80.4262
2023-05-24T00:02:35.922Z,80.8867
2023-05-24T00:03:37.833Z,80.8248
2023-05-24T00:04:39.591Z,80.3209
2023-05-24T00:05:41.260Z,80.2973
2023-05-24T00:06:42.905Z,80.8604
2023-05-24T00:07:44.608Z,80.9131
2023-05-24T00:08:46.280Z,81.4147
2023-05-24T00:09:47.962Z,81.2154
2023-05-24T00:10:49.639Z,80.8007
2023-05-24T00:11:51.322Z,81.0351
2023-05-24T00:12:53.003Z,80.9754
2023-05-24T00:13:54.693Z,80.4864
2023-05-24T00:14:56.385Z,80.7698
2023-05-24T00:15:58.065Z,80.5541
2023-05-24T00:16:59.733Z,80.5529
2023-05-24T00:18:01.568Z,80.8028
2023-05-24T00:19:03.265Z,80.5995
2023-05-24T00:20:07.290Z,81.0751
2023-05-24T00:21:05.761Z,81.1728
2023-05-24T00:22:07.467Z,80.9480
2023-05-24T00:23:09.141Z,80.5289
2023-05-24T00:24:10.846Z,80.7335
2023-05-24T00:25:12.538Z,80.2558
2023-05-24T00:26:14.202Z,80.0431
2023-05-24T00:27:15.909Z,80.0930
2023-05-24T00:28:17.569Z,80.0051
2023-05-24T00:29:19.269Z,80.1435
2023-05-24T00:30:20.975Z,79.8168
2023-05-24T00:31:22.704Z,79.7195
2023-05-24T00:32:24.369Z,79.5825
2023-05-24T00:33:26.055Z,79.4791
2023-05-24T00:34:27.732Z,79.7140
2023-05-24T00:35:29.412Z,79.9215
2023-05-24T00:36:31.176Z,79.9570
2023-05-24T00:37:32.811Z,79.9737
2023-05-24T00:38:34.482Z,80.1052
2023-05-24T00:39:36.158Z,79.8375
2023-05-24T00:40:38.879Z,80.4335
2023-05-24T00:41:40.675Z,80.5937
2023-05-24T00:42:42.588Z,80.0319
2023-05-24T00:43:44.513Z,79.5080
2023-05-24T00:44:46.185Z,79.4417
2023-05-24T00:45:47.880Z,79.4624
2023-05-24T00:46:49.526Z,79.1426
2023-05-24T00:47:51.260Z,79.7393
2023-05-24T00:48:52.915Z,80.0177
2023-05-24T00:49:54.596Z,79.6254
2023-05-24T00:50:56.261Z,80.2324
2023-05-24T00:51:57.965Z,79.7627
2023-05-24T00:52:59.659Z,80.5575
2023-05-24T00:54:02.359Z,81.0957
2023-05-24T00:55:04.053Z,80.9998
2023-05-24T00:56:05.727Z,80.2783
2023-05-24T00:57:07.389Z,80.5696
2023-05-24T00:58:09.086Z,80.1471
2023-05-24T00:59:10.763Z,80.3585
2023-05-24T01:00:12.452Z,80.7506
2023-05-24T01:01:14.147Z,81.0034
2023-05-24T01:02:15.841Z,80.9213
2023-05-24T01:03:17.661Z,80.6781
2023-05-24T01:04:19.555Z,81.1569
2023-05-24T01:05:21.477Z,81.2894
2023-05-24T01:06:24.522Z,81.1312
2023-05-24T01:07:26.410Z,80.9413
2023-05-24T01:08:28.328Z,81.5976
2023-05-24T01:09:30.242Z,81.8156
2023-05-24T01:10:32.194Z,81.7213
2023-05-24T01:11:34.087Z,81.6306
2023-05-24T01:12:36.012Z,81.4020
2023-05-24T01:13:37.931Z,80.9459
2023-05-24T01:14:39.863Z,80.7205
2023-05-24T01:15:41.811Z,80.6937
2023-05-24T01:16:43.757Z,80.9005
2023-05-24T01:17:45.709Z,81.1842
2023-05-24T01:18:47.605Z,80.6692
2023-05-24T01:19:49.637Z,80.4719
2023-05-24T01:20:51.612Z,80.3487
2023-05-24T01:21:53.516Z,80.0821
2023-05-24T01:22:55.440Z,79.8840
2023-05-24T01:23:57.138Z,79.6626
2023-05-24T01:24:58.836Z,79.8543
2023-05-24T01:26:00.740Z,79.9024
2023-05-24T01:27:02.658Z,80.2176
2023-05-24T01:28:04.558Z,80.6334
2023-05-24T01:29:06.499Z,80.4614
2023-05-24T01:30:08.209Z,80.2561
2023-05-24T01:31:09.891Z,80.3340
2023-05-24T01:32:11.586Z,80.5759
2023-05-24T01:33:13.259Z,80.6027
2023-05-24T01:34:14.949Z,79.8734
2023-05-24T01:35:16.610Z,79.9601
2023-05-24T01:36:18.290Z,80.2443
2023-05-24T01:37:20.041Z,80.0069
2023-05-24T01:38:21.711Z,79.9933
2023-05-24T01:39:23.426Z,79.7884
2023-05-24T01:40:25.125Z,79.0015
2023-05-24T01:41:26.801Z,79.6335
2023-05-24T01:42:28.718Z,79.6531
2023-05-24T01:43:30.651Z,80.2552
2023-05-24T01:44:32.563Z,79.9436
2023-05-24T01:45:34.499Z,80.0930
2023-05-24T01:46:36.441Z,80.3987
2023-05-24T01:47:38.397Z,80.8554
2023-05-24T01:48:40.288Z,80.2095
2023-05-24T01:49:42.194Z,80.2343
2023-05-24T01:50:44.271Z,80.1359
2023-05-24T01:51:46.240Z,80.1105
2023-05-24T01:52:48.173Z,80.9108
2023-05-24T01:53:50.112Z,80.9800
2023-05-24T01:54:52.021Z,80.5263
2023-05-24T01:55:53.954Z,80.3524
2023-05-24T01:56:55.836Z,80.1726
2023-05-24T01:57:57.765Z,80.0946
2023-05-24T01:58:59.676Z,80.5988
2023-05-24T02:00:01.580Z,80.2560
2023-05-24T02:01:03.555Z,79.8332
2023-05-24T02:02:05.448Z,80.0440
2023-05-24T02:03:07.676Z,80.2280
2023-05-24T02:04:09.631Z,80.4221
2023-05-24T02:05:11.544Z,80.0994
2023-05-24T02:06:13.452Z,80.4502
2023-05-24T02:07:15.364Z,81.2775
2023-05-24T02:08:17.323Z,81.1658
2023-05-24T02:09:19.202Z,80.9499
2023-05-24T02:10:21.121Z,80.3910
2023-05-24T02:11:23.047Z,80.2217
2023-05-24T02:12:25.012Z,80.5682
2023-05-24T02:13:26.960Z,80.3785
2023-05-24T02:14:28.842Z,80.2909
2023-05-24T02:15:30.766Z,79.9713
2023-05-24T02:16:32.633Z,80.1601
2023-05-24T02:17:34.601Z,79.7598
2023-05-24T02:18:36.500Z,79.8663
2023-05-24T02:19:38.417Z,79.5792
2023-05-24T02:20:40.668Z,79.8611
2023-05-24T02:21:42.698Z,80.0416
2023-05-24T02:22:44.625Z,80.2867
2023-05-24T02:23:46.523Z,81.0734
2023-05-24T02:24:48.526Z,80.9366
2023-05-24T02:25:50.472Z,81.0453
2023-05-24T02:26:52.431Z,80.9624
2023-05-24T02:27:54.323Z,81.2365
2023-05-24T02:28:56.257Z,80.7586
2023-05-24T02:29:58.148Z,81.1541
2023-05-24T02:31:00.126Z,81.2122
2023-05-24T02:32:02.054Z,80.4217
2023-05-24T02:33:04.039Z,80.4566
2023-05-24T02:34:05.917Z,80.8401
2023-05-24T02:35:07.830Z,80.4853
2023-05-24T02:36:09.726Z,80.8460
2023-05-24T02:37:11.699Z,80.4379
2023-05-24T02:38:13.627Z,80.5476
2023-05-24T02:39:15.583Z,81.1435
2023-05-24T02:40:17.500Z,80.8241
2023-05-24T02:41:19.424Z,81.4980
2023-05-24T02:42:21.355Z,80.4820
2023-05-24T02:43:23.256Z,80.2724
2023-05-24T02:44:25.155Z,80.5136
2023-05-24T02:45:27.096Z,80.5198
2023-05-24T02:46:29.037Z,80.5240
2023-05-24T02:47:30.929Z,80.2832
2023-05-24T02:48:32.808Z,80.0534
2023-05-24T02:49:34.714Z,80.7220
2023-05-24T02:50:36.644Z,81.1604
2023-05-24T02:51:38.540Z,80.7359
2023-05-24T02:52:40.474Z,80.4444
2023-05-24T02:53:42.388Z,81.2306
2023-05-24T02:54:44.299Z,81.0521
2023-05-24T02:55:46.213Z,81.1335
2023-05-24T02:56:48.124Z,81.1768
2023-05-24T02:57:50.067Z,81.0111
2023-05-24T02:58:51.958Z,81.0652
2023-05-24T02:59:53.862Z,80.6849
2023-05-24T03:00:55.773Z,80.6964
2023-05-24T03:01:57.924Z,80.7869
2023-05-24T03:02:59.950Z,81.6777
2023-05-24T03:04:02.043Z,81.7368
2023-05-24T03:05:03.970Z,81.3944
2023-05-24T03:06:05.901Z,81.5695
2023-05-24T03:07:07.834Z,81.7611
2023-05-24T03:08:09.722Z,81.4286
2023-05-24T03:09:11.656Z,81.2739
2023-05-24T03:10:15.834Z,81.3589
2023-05-24T03:11:14.613Z,81.6698
2023-05-24T03:12:16.529Z,81.6234
2023-05-24T03:13:18.420Z,81.4679
2023-05-24T03:14:20.348Z,81.3758
2023-05-24T03:15:22.263Z,81.5626
2023-05-24T03:16:24.226Z,81.6211
2023-05-24T03:17:26.146Z,81.0760
2023-05-24T03:18:28.034Z,80.7955
2023-05-24T03:19:29.949Z,80.6561
2023-05-24T03:20:31.930Z,80.6433
2023-05-24T03:21:33.819Z,81.2641
2023-05-24T03:22:35.774Z,81.0699
2023-05-24T03:23:37.684Z,80.5185
2023-05-24T03:24:39.586Z,80.9163
2023-05-24T03:25:41.497Z,80.6439
2023-05-24T03:26:43.412Z,80.5734
2023-05-24T03:27:45.343Z,80.3645
2023-05-24T03:28:47.271Z,80.1739
2023-05-24T03:29:49.178Z,80.5199
2023-05-24T03:30:51.087Z,80.2838
2023-05-24T03:31:53.087Z,80.2169
2023-05-24T03:32:55.000Z,79.9385
2023-05-24T03:33:56.870Z,80.1010
2023-05-24T03:34:58.786Z,80.4270
2023-05-24T03:36:00.696Z,80.3973
2023-05-24T03:37:02.605Z,80.1079
2023-05-24T03:38:04.527Z,80.2139
2023-05-24T03:39:06.435Z,80.5648
2023-05-24T03:40:08.346Z,80.6731
2023-05-24T03:41:10.266Z,80.9385
2023-05-24T03:42:12.187Z,81.1025
2023-05-24T03:43:14.105Z,80.9079
2023-05-24T03:44:16.026Z,81.0185
2023-05-24T03:45:26.981Z,81.1877
2023-05-24T03:46:19.198Z,81.8505
2023-05-24T03:47:21.186Z,81.9434
2023-05-24T03:48:24.081Z,81.9429
2023-05-24T03:49:26.015Z,81.9876
2023-05-24T03:50:27.918Z,81.7627
2023-05-24T03:51:29.916Z,81.7039
2023-05-24T03:52:31.759Z,81.6267
2023-05-24T03:53:33.671Z,80.9957
2023-05-24T03:54:35.595Z,80.9484
2023-05-24T03:55:37.514Z,80.6192
2023-05-24T03:56:39.437Z,80.5563
2023-05-24T03:57:41.361Z,80.8381
2023-05-24T03:58:43.332Z,80.6798
2023-05-24T03:59:45.245Z,80.8475
2023-05-24T04:00:47.206Z,80.8661
2023-05-24T04:01:49.227Z,81.2688
2023-05-24T04:02:51.335Z,81.1222
2023-05-24T04:03:53.352Z,80.6060
2023-05-24T04:04:55.312Z,80.7209
2023-05-24T04:05:57.271Z,80.9204
2023-05-24T04:06:59.256Z,80.5580
2023-05-24T04:08:01.268Z,81.1963
2023-05-24T04:09:03.299Z,81.2139
2023-05-24T04:10:05.288Z,81.4787
2023-05-24T04:11:07.221Z,81.3692
2023-05-24T04:12:09.214Z,81.5379
2023-05-24T04:13:11.155Z,81.6393
2023-05-24T04:14:13.133Z,81.2700
2023-05-24T04:15:15.102Z,81.3476
2023-05-24T04:16:17.123Z,81.4575
2023-05-24T04:17:19.176Z,81.4559
2023-05-24T04:18:21.204Z,81.4128
2023-05-24T04:19:23.158Z,81.5340
2023-05-24T04:20:25.187Z,81.7509
2023-05-24T04:21:27.157Z,81.2327
2023-05-24T04:22:29.161Z,80.7382
2023-05-24T04:23:31.164Z,80.4392
2023-05-24T04:24:33.157Z,80.2496
2023-05-24T04:25:35.137Z,81.3844
2023-05-24T04:26:37.105Z,81.1622
2023-05-24T04:27:39.123Z,81.1135
2023-05-24T04:28:41.163Z,81.3578
2023-05-24T04:29:43.110Z,81.0444
2023-05-24T04:30:45.048Z,80.6754
2023-05-24T04:31:47.198Z,80.4190
2023-05-24T04:32:49.286Z,80.8109
2023-05-24T04:33:51.263Z,81.2532
2023-05-24T04:34:53.232Z,81.5151
2023-05-24T04:35:55.296Z,81.5969
2023-05-24T04:36:57.241Z,82.0121
2023-05-24T04:37:59.228Z,81.7882
2023-05-24T04:39:01.207Z,81.4296
2023-05-24T04:40:03.238Z,81.2968
2023-05-24T04:41:05.184Z,81.5370
2023-05-24T04:42:07.150Z,81.7935
2023-05-24T04:43:09.152Z,81.7083
2023-05-24T04:44:11.193Z,81.0843
2023-05-24T04:45:13.282Z,80.9353
2023-05-24T04:46:16.220Z,81.0054
2023-05-24T04:47:18.243Z,81.3393
2023-05-24T04:48:20.210Z,81.1404
2023-05-24T04:49:22.119Z,80.7330
2023-05-24T04:50:23.890Z,80.2383
2023-05-24T04:51:25.654Z,80.3189
2023-05-24T04:52:27.431Z,80.3003
2023-05-24T04:53:29.230Z,80.4419
2023-05-24T04:54:31.279Z,80.4479
2023-05-24T04:55:33.346Z,80.9716
2023-05-24T04:56:35.338Z,80.7877
2023-05-24T04:57:37.311Z,80.4171
2023-05-24T04:58:39.500Z,80.2468
2023-05-24T04:59:41.392Z,80.2890
2023-05-24T05:00:43.560Z,80.4850
2023-05-24T05:01:45.601Z,80.1434
2023-05-24T05:02:47.609Z,79.5984
2023-05-24T05:03:49.573Z,79.8296
2023-05-24T05:04:51.343Z,79.7474
2023-05-24T05:05:53.169Z,79.3443
2023-05-24T05:06:54.906Z,79.5739
2023-05-24T05:07:56.715Z,79.9314
2023-05-24T05:08:58.534Z,79.9688
2023-05-24T05:10:00.638Z,80.2767
2023-05-24T05:11:02.618Z,80.0496
2023-05-24T05:12:04.576Z,80.7004
2023-05-24T05:13:06.524Z,80.4301
2023-05-24T05:14:08.459Z,80.6785
2023-05-24T05:15:10.491Z,80.6824
2023-05-24T05:16:12.500Z,80.8284
2023-05-24T05:17:14.461Z,80.5301
2023-05-24T05:18:16.546Z,80.5533
2023-05-24T05:19:18.517Z,80.4875
2023-05-24T05:20:20.527Z,80.4296
2023-05-24T05:21:22.455Z,80.3371
2023-05-24T05:23:25.823Z,80.2825
2023-05-24T05:24:27.808Z,80.5929
2023-05-24T05:25:29.856Z,80.4943
2023-05-24T05:26:31.857Z,80.1422
2023-05-24T05:27:33.869Z,80.1127
2023-05-24T05:28:35.678Z,80.0830
2023-05-24T05:29:37.408Z,80.3130
2023-05-24T05:30:39.155Z,80.6807
2023-05-24T05:31:41.140Z,80.6663
2023-05-24T05:32:43.321Z,80.7938
2023-05-24T05:33:46.313Z,80.6849
2023-05-24T05:34:48.336Z,80.5609
2023-05-24T05:35:51.753Z,80.6288
2023-05-24T05:36:51.474Z,81.0596
2023-05-24T05:37:53.428Z,81.2321
2023-05-24T05:38:55.453Z,81.0831
2023-05-24T05:39:57.443Z,80.6796
2023-05-24T05:40:59.506Z,81.0352
2023-05-24T05:42:01.474Z,81.4039
2023-05-24T05:43:03.415Z,81.4633
2023-05-24T05:44:05.451Z,81.4250
2023-05-24T05:45:07.469Z,81.2877
2023-05-24T05:46:09.493Z,81.5716
2023-05-24T05:47:11.481Z,81.8932
2023-05-24T05:48:13.396Z,81.9153
2023-05-24T05:49:15.404Z,81.1089
2023-05-24T05:50:17.594Z,80.7448
2023-05-24T05:51:19.647Z,80.6928
2023-05-24T05:52:21.571Z,81.0439
2023-05-24T05:53:23.553Z,80.8969
2023-05-24T05:54:25.513Z,80.7727
2023-05-24T05:55:27.380Z,80.2974
2023-05-24T05:56:29.315Z,80.2591
2023-05-24T05:57:31.269Z,80.5266
2023-05-24T05:58:33.342Z,80.5424
2023-05-24T05:59:35.327Z,80.9826
2023-05-24T06:00:38.116Z,81.0301
2023-05-24T06:01:40.191Z,80.9766
2023-05-24T06:02:42.149Z,81.1725
2023-05-24T06:03:45.458Z,80.8477
2023-05-24T06:04:47.656Z,80.7040
2023-05-24T06:05:49.645Z,81.0582
2023-05-24T06:06:51.687Z,80.8501
2023-05-24T06:07:53.427Z,80.4885
2023-05-24T06:08:55.211Z,80.4406
2023-05-24T06:09:57.003Z,80.4064
2023-05-24T06:10:58.743Z,80.1135
2023-05-24T06:12:00.469Z,80.2411
2023-05-24T06:13:02.288Z,80.5260
2023-05-24T06:14:04.077Z,80.2126
2023-05-24T06:15:05.827Z,79.9973
2023-05-24T06:16:07.668Z,80.0171
2023-05-24T06:17:09.351Z,79.8681
2023-05-24T06:18:11.058Z,79.3309
2023-05-24T06:19:12.843Z,79.0027
2023-05-24T06:20:14.641Z,78.5102
2023-05-24T06:21:16.383Z,78.6103
2023-05-24T06:22:18.167Z,78.4282
2023-05-24T06:23:19.903Z,78.2447
2023-05-24T06:24:21.710Z,78.1286
2023-05-24T06:25:23.509Z,78.2735
2023-05-24T06:26:25.313Z,78.5228
2023-05-24T06:27:27.044Z,78.8319
2023-05-24T06:28:28.778Z,78.7754
2023-05-24T06:29:30.830Z,79.1682
2023-05-24T06:30:32.626Z,79.4650
2023-05-24T06:31:34.392Z,79.2471
2023-05-24T06:32:36.460Z,79.0022
2023-05-24T06:33:38.383Z,78.1631
2023-05-24T06:34:40.690Z,78.4106
2023-05-24T06:35:42.461Z,78.4220
2023-05-24T06:36:44.255Z,78.5539
2023-05-24T06:37:46.065Z,78.5065
2023-05-24T06:38:47.801Z,78.1895
2023-05-24T06:39:49.595Z,77.9356
2023-05-24T06:40:51.328Z,77.9897
2023-05-24T06:41:53.047Z,78.3100
2023-05-24T06:42:54.760Z,78.4521
2023-05-24T06:43:56.661Z,79.0840
2023-05-24T06:44:58.440Z,78.8235
2023-05-24T06:46:00.165Z,79.1258
2023-05-24T06:47:01.956Z,79.8223
2023-05-24T06:48:03.812Z,79.9955
2023-05-24T06:49:05.619Z,80.2161
2023-05-24T06:50:07.388Z,80.7608
2023-05-24T06:51:09.119Z,80.4982
2023-05-24T06:52:10.907Z,80.4151
2023-05-24T06:53:13.058Z,80.6624
2023-05-24T06:54:15.061Z,80.7957
2023-05-24T06:55:17.015Z,81.2163
2023-05-24T06:56:19.111Z,81.4212
2023-05-24T06:57:21.046Z,81.0482
2023-05-24T06:58:22.776Z,80.1864
2023-05-24T06:59:24.605Z,80.3790
2023-05-24T07:00:26.363Z,81.1134
2023-05-24T07:01:28.083Z,80.8227
2023-05-24T07:02:29.869Z,80.9223
2023-05-24T07:03:31.628Z,80.5205
2023-05-24T07:04:33.427Z,80.5522
2023-05-24T07:05:35.153Z,80.7006
2023-05-24T07:06:36.863Z,80.6098
2023-05-24T07:07:38.643Z,80.5844
2023-05-24T07:08:40.438Z,80.4380
2023-05-24T07:09:42.224Z,79.9421
2023-05-24T07:10:44.179Z,79.5805
2023-05-24T07:11:46.570Z,79.2393
2023-05-24T07:12:48.368Z,78.5742
2023-05-24T07:13:50.101Z,78.4807
2023-05-24T07:14:51.858Z,78.7327
2023-05-24T07:15:53.602Z,78.7415
2023-05-24T07:16:55.539Z,79.0294
2023-05-24T07:17:58.512Z,78.6772
2023-05-24T07:19:01.889Z,78.2862
2023-05-24T07:20:02.726Z,78.2384
2023-05-24T07:21:04.680Z,77.5318
2023-05-24T07:22:06.704Z,77.4324
2023-05-24T07:23:08.638Z,77.6855
2023-05-24T07:24:10.665Z,77.7034
2023-05-24T07:25:12.623Z,77.1596
2023-05-24T07:26:14.660Z,77.3500
2023-05-24T07:27:16.612Z,77.6795
2023-05-24T07:28:18.659Z,78.1168
2023-05-24T07:29:20.428Z,78.2067
2023-05-24T07:30:31.784Z,78.3787
2023-05-24T07:31:23.249Z,78.7218
2023-05-24T07:32:24.996Z,78.7369
2023-05-24T07:33:27.686Z,78.6660
2023-05-24T07:34:29.610Z,78.6011
2023-05-24T07:35:31.344Z,78.7415
2023-05-24T07:36:34.832Z,78.8065
2023-05-24T07:37:33.479Z,78.2963
2023-05-24T07:38:35.260Z,78.0841
2023-05-24T07:39:37.017Z,78.0942
2023-05-24T07:40:39.005Z,78.6629
2023-05-24T07:41:41.012Z,79.3084
2023-05-24T07:42:43.117Z,79.0540
2023-05-24T07:43:45.094Z,78.7516
2023-05-24T07:44:46.818Z,78.3605
2023-05-24T07:45:48.556Z,78.1906
2023-05-24T07:46:50.435Z,78.1611
2023-05-24T07:47:53.308Z,77.9292
2023-05-24T07:48:53.617Z,77.7752
2023-05-24T07:49:55.389Z,78.2537
2023-05-24T07:50:57.149Z,78.0882
2023-05-24T07:51:58.864Z,77.9393
2023-05-24T07:53:00.596Z,78.1838
2023-05-24T07:54:02.374Z,77.9359
2023-05-24T07:55:04.145Z,77.6322
2023-05-24T07:56:05.882Z,77.9051
2023-05-24T07:57:09.453Z,78.1237
2023-05-24T07:58:07.988Z,77.8451
2023-05-24T07:59:09.766Z,77.8748
2023-05-24T08:00:11.506Z,78.1545
2023-05-24T08:01:13.218Z,78.0318
2023-05-24T08:02:15.019Z,78.3976
2023-05-24T08:03:16.817Z,78.7356
2023-05-24T08:04:18.553Z,77.9232
2023-05-24T08:05:20.283Z,77.3827
2023-05-24T08:06:22.238Z,77.3954
2023-05-24T08:07:24.034Z,77.4636
2023-05-24T08:08:25.740Z,77.4165
2023-05-24T08:09:27.450Z,77.6354
2023-05-24T08:10:29.188Z,77.8999
2023-05-24T08:11:30.992Z,77.5539
2023-05-24T08:12:32.731Z,77.1843
2023-05-24T08:13:34.459Z,77.7091
2023-05-24T08:14:36.190Z,77.9109
2023-05-24T08:15:37.948Z,77.8985
2023-05-24T08:16:39.849Z,78.4946
2023-05-24T08:17:41.638Z,78.2153
2023-05-24T08:18:43.419Z,77.6643
2023-05-24T08:19:45.224Z,76.9402
2023-05-24T08:20:47.194Z,76.6773
2023-05-24T08:21:48.892Z,76.7803
2023-05-24T08:22:50.763Z,76.4232
2023-05-24T08:23:52.629Z,76.8162
2023-05-24T08:24:54.365Z,77.4667
2023-05-24T08:25:56.062Z,77.8911
2023-05-24T08:26:57.805Z,77.0495
2023-05-24T08:27:59.561Z,76.3280
2023-05-24T08:29:01.348Z,76.8699
2023-05-24T08:30:03.091Z,76.8285
2023-05-24T08:31:05.134Z,76.9653
2023-05-24T08:32:07.504Z,77.2243
2023-05-24T08:33:09.365Z,77.5119
2023-05-24T08:34:11.119Z,77.3524
2023-05-24T08:35:21.102Z,77.2455
2023-05-24T08:36:14.124Z,77.0494
2023-05-24T08:37:16.400Z,77.7218
2023-05-24T08:38:18.093Z,76.8014
2023-05-24T08:39:19.868Z,76.5703
2023-05-24T08:40:21.597Z,76.6447
2023-05-24T08:41:23.291Z,76.4739
2023-05-24T08:42:25.074Z,76.2474
2023-05-24T08:43:26.826Z,76.4751
2023-05-24T08:44:28.535Z,76.4894
2023-05-24T08:45:30.314Z,76.1491
2023-05-24T08:46:32.105Z,76.7795
2023-05-24T08:47:33.977Z,76.9087
2023-05-24T08:48:35.983Z,77.1081
2023-05-24T08:49:37.823Z,77.0680
2023-05-24T08:50:39.627Z,76.7888
2023-05-24T08:51:41.408Z,76.6641
2023-05-24T08:52:43.139Z,76.3112
2023-05-24T08:53:44.874Z,75.7127
2023-05-24T08:54:46.604Z,75.8675
2023-05-24T08:55:48.479Z,75.9358
2023-05-24T08:56:50.245Z,75.8918
2023-05-24T08:57:51.962Z,75.5308
2023-05-24T08:59:00.432Z,75.6021
2023-05-24T08:59:55.637Z,75.1781
2023-05-24T09:00:57.472Z,75.2439
2023-05-24T09:01:59.175Z,74.8983
2023-05-24T09:03:01.035Z,75.5231
2023-05-24T09:04:03.864Z,75.5448
2023-05-24T09:05:05.628Z,75.5650
2023-05-24T09:06:07.359Z,75.2969
2023-05-24T09:07:09.192Z,74.9139
2023-05-24T09:08:11.261Z,74.9328
2023-05-24T09:09:13.153Z,75.5841
2023-05-24T09:10:15.081Z,75.1149
2023-05-24T09:11:17.035Z,75.5508
2023-05-24T09:12:32.482Z,75.4110
2023-05-24T09:13:20.862Z,74.9694
2023-05-24T09:14:22.814Z,74.8717
2023-05-24T09:15:24.823Z,75.0166
2023-05-24T09:16:26.910Z,74.8161
2023-05-24T09:17:29.705Z,74.8880
2023-05-24T09:18:30.914Z,74.7384
2023-05-24T09:19:32.920Z,74.4383
2023-05-24T09:20:34.927Z,74.7317
2023-05-24T09:21:36.764Z,74.5932
2023-05-24T09:22:40.766Z,74.8138
2023-05-24T09:23:40.042Z,74.7500
2023-05-24T09:24:41.823Z,74.1788
2023-05-24T09:25:43.614Z,74.6941
2023-05-24T09:26:45.666Z,74.8533
2023-05-24T09:27:49.008Z,74.5334
2023-05-24T09:28:47.693Z,74.5080
2023-05-24T09:29:49.633Z,74.4074
2023-05-24T09:30:51.541Z,74.2822
2023-05-24T09:31:53.608Z,73.8973
2023-05-24T09:32:55.589Z,74.2669
2023-05-24T09:33:57.411Z,73.7992
2023-05-24T09:34:59.146Z,74.3263
2023-05-24T09:36:00.851Z,74.2845
2023-05-24T09:37:02.669Z,73.7096
2023-05-24T09:38:04.563Z,73.8432
2023-05-24T09:39:06.312Z,73.7518
2023-05-24T09:40:08.051Z,73.7674
2023-05-24T09:41:09.749Z,73.0109
2023-05-24T09:42:11.604Z,72.9648
2023-05-24T09:43:13.304Z,73.0178
2023-05-24T09:44:15.028Z,73.0891
2023-05-24T09:45:16.778Z,72.9065
2023-05-24T09:46:18.611Z,72.4543
2023-05-24T09:47:21.390Z,72.2870
2023-05-24T09:48:23.234Z,72.2290
2023-05-24T09:49:24.950Z,71.8506
2023-05-24T09:50:26.706Z,72.0763
2023-05-24T09:51:28.499Z,72.2494
2023-05-24T09:52:30.215Z,72.4434
2023-05-24T09:53:31.949Z,72.3489
2023-05-24T09:54:33.839Z,72.8926
2023-05-24T09:55:35.721Z,72.6478
2023-05-24T09:56:37.445Z,72.8567
2023-05-24T09:57:39.139Z,72.9770
2023-05-24T09:58:40.867Z,73.6326
2023-05-24T09:59:42.623Z,73.3730
2023-05-24T10:00:44.605Z,73.3987
2023-05-24T10:01:46.720Z,73.5518
2023-05-24T10:03:49.789Z,72.4805
2023-05-24T10:04:51.614Z,71.9670
2023-05-24T10:05:53.258Z,72.1573
2023-05-24T10:06:55.030Z,73.0778
2023-05-24T10:07:56.804Z,72.1494
2023-05-24T10:08:58.577Z,71.5677
2023-05-24T10:10:00.291Z,71.4079
2023-05-24T10:11:02.014Z,71.2781
2023-05-24T10:12:03.787Z,71.1923
2023-05-24T10:13:05.534Z,71.0518
2023-05-24T10:14:07.285Z,70.6547
2023-05-24T10:15:09.030Z,71.3761
2023-05-24T10:16:10.809Z,70.7004
2023-05-24T10:17:12.750Z,72.0405
2023-05-24T10:18:14.707Z,71.9983
2023-05-24T10:19:17.474Z,71.6710
2023-05-24T10:20:19.278Z,70.9713
2023-05-24T10:21:21.037Z,70.9462
2023-05-24T10:22:22.762Z,70.8477
2023-05-24T10:23:24.573Z,71.0865
2023-05-24T10:24:26.375Z,70.6346
2023-05-24T10:25:28.091Z,71.0742
2023-05-24T10:26:29.825Z,71.1894
2023-05-24T10:27:31.557Z,71.3396
2023-05-24T10:28:33.322Z,70.6197
2023-05-24T10:29:35.080Z,70.8533
2023-05-24T10:30:36.846Z,71.4034
2023-05-24T10:31:38.654Z,71.5748
2023-05-24T10:32:40.488Z,71.3521
2023-05-24T10:33:42.207Z,70.6259
2023-05-24T10:34:43.925Z,70.3861
2023-05-24T10:35:46.689Z,70.7368
2023-05-24T10:36:48.477Z,70.7382
2023-05-24T10:37:50.297Z,70.6684
2023-05-24T10:38:51.996Z,70.2678
2023-05-24T10:39:53.758Z,69.4475
2023-05-24T10:40:55.510Z,69.8992
2023-05-24T10:41:57.232Z,70.3468
2023-05-24T10:42:58.960Z,69.6501
2023-05-24T10:44:09.870Z,69.5141
2023-05-24T10:45:01.715Z,69.3210
2023-05-24T10:46:03.460Z,69.1568
2023-05-24T10:47:05.213Z,69.9326
2023-05-24T10:48:06.987Z,69.8021
2023-05-24T10:50:09.820Z,70.4802
2023-05-24T10:51:11.661Z,69.5793
2023-05-24T10:52:13.474Z,69.5396
2023-05-24T10:53:15.209Z,69.6703
2023-05-24T10:54:16.949Z,69.1451
2023-05-24T10:55:18.631Z,69.2182
2023-05-24T10:56:20.447Z,69.4124
2023-05-24T10:57:22.190Z,70.0850
2023-05-24T10:58:23.886Z,70.3543
2023-05-24T10:59:25.854Z,70.7166
2023-05-24T11:01:28.623Z,70.8600
2023-05-24T11:02:30.362Z,70.8458
2023-05-24T11:03:32.132Z,70.8592
2023-05-24T11:04:33.872Z,70.5855
2023-05-24T11:05:35.630Z,69.8692
2023-05-24T11:07:38.640Z,70.6306
2023-05-24T11:08:40.381Z,70.4124
2023-05-24T11:09:42.104Z,70.5106
2023-05-24T11:10:44.153Z,71.4724
2023-05-24T11:11:46.148Z,71.0055
2023-05-24T11:12:47.870Z,71.2926
2023-05-24T11:13:49.608Z,70.7622
2023-05-24T11:14:51.436Z,71.1422
2023-05-24T11:15:53.169Z,71.5563
2023-05-24T11:16:55.018Z,70.5547
2023-05-24T11:17:56.763Z,70.6093
2023-05-24T11:18:58.462Z,70.3003
2023-05-24T11:20:00.255Z,70.5016
2023-05-24T11:21:02.009Z,70.8793
2023-05-24T11:22:03.764Z,70.6400
2023-05-24T11:23:05.499Z,70.9971
2023-05-24T11:24:07.317Z,70.9721
2023-05-24T11:25:09.104Z,71.0079
2023-05-24T11:26:10.823Z,70.7013
2023-05-24T11:27:12.611Z,70.8315
2023-05-24T11:28:14.407Z,71.1136
2023-05-24T11:29:16.237Z,71.1035
2023-05-24T11:30:17.938Z,71.3219
2023-05-24T11:31:19.749Z,70.8904
2023-05-24T11:32:21.681Z,70.8262
2023-05-24T11:33:23.397Z,70.8675
2023-05-24T11:34:25.143Z,71.0824
2023-05-24T11:35:26.892Z,70.6299
2023-05-24T11:36:28.801Z,70.5204
2023-05-24T11:37:45.592Z,70.7812
2023-05-24T11:38:33.058Z,71.3720
2023-05-24T11:39:36.052Z,71.1537
2023-05-24T11:40:37.979Z,70.8884
2023-05-24T11:41:41.822Z,71.3998
2023-05-24T11:42:40.445Z,71.1530
2023-05-24T11:43:42.388Z,70.9995
2023-05-24T11:44:52.275Z,71.2897
2023-05-24T11:45:47.471Z,71.5350
2023-05-24T11:46:49.196Z,71.6640
2023-05-24T11:47:51.011Z,71.4528
2023-05-24T11:48:52.732Z,71.5029
2023-05-24T11:49:54.453Z,70.9640
2023-05-24T11:50:56.435Z,70.3757
2023-05-24T11:51:58.288Z,71.3544
2023-05-24T11:53:00.052Z,72.0557
2023-05-24T11:54:01.785Z,71.0862
2023-05-24T11:55:03.502Z,71.2770
2023-05-24T11:56:05.339Z,70.5520
2023-05-24T11:57:07.013Z,70.5064
2023-05-24T11:58:08.777Z,70.4267
2023-05-24T11:59:10.466Z,70.4325
2023-05-24T12:00:12.222Z,70.1832
2023-05-24T12:01:13.989Z,69.7798
2023-05-24T12:02:15.953Z,70.2682
2023-05-24T12:03:17.844Z,70.4276
2023-05-24T12:04:19.802Z,70.7859
2023-05-24T12:05:21.541Z,70.9960
2023-05-24T12:06:23.264Z,70.4722
2023-05-24T12:07:24.961Z,70.7083
2023-05-24T12:08:26.712Z,70.7281
2023-05-24T12:09:28.478Z,69.2997
2023-05-24T12:10:30.197Z,70.0292
2023-05-24T12:11:31.957Z,70.5234
2023-05-24T12:12:42.293Z,70.3163
2023-05-24T12:13:34.869Z,69.5359
2023-05-24T12:14:36.625Z,69.4604
2023-05-24T12:15:38.426Z,69.2311
2023-05-24T12:16:40.190Z,69.3056
2023-05-24T12:17:41.980Z,68.8215
2023-05-24T12:18:55.069Z,69.1703
2023-05-24T12:19:44.848Z,68.2579
2023-05-24T12:20:46.865Z,67.5163
2023-05-24T12:21:48.735Z,67.0530
2023-05-24T12:22:50.667Z,67.4725
2023-05-24T12:23:52.657Z,68.3817
2023-05-24T12:24:54.511Z,67.6566
2023-05-24T12:25:56.232Z,68.3639
2023-05-24T12:26:58.170Z,68.4731
2023-05-24T12:27:59.981Z,67.2887
2023-05-24T12:29:01.724Z,67.7706
2023-05-24T12:30:03.428Z,68.4768
2023-05-24T12:31:07.970Z,67.1134
2023-05-24T12:32:06.430Z,66.9222
2023-05-24T12:33:08.205Z,67.2132